sensor_id;sensor_type;location;lat;lon;timestamp;temperature;humidity
4406;DHT22;2216;53.806;11.598;2023-11-21T00:00:19;7.20;90.80
4406;DHT22;2216;53.806;11.598;2023-11-21T00:02:45;7.20;90.80
4406;DHT22;2216;53.806;11.598;2023-11-21T00:05:12;7.20;90.80
4406;DHT22;2216;53.806;11.598;2023-11-21T00:07:41;7.20;90.80
4406;DHT22;2216;53.806;11.598;2023-11-21T00:10:08;7.20;90.80
4406;DHT22;2216;53.806;11.598;2023-11-21T00:12:35;7.20;90.80
4406;DHT22;2216;53.806;11.598;2023-11-21T00:15:01;7.20;90.80
4406;DHT22;2216;53.806;11.598;2023-11-21T00:17:28;7.20;90.80
4406;DHT22;2216;53.806;11.598;2023-11-21T00:19:53;7.20;90.80
4406;DHT22;2216;53.806;11.598;2023-11-21T00:22:20;7.20;90.80
4406;DHT22;2216;53.806;11.598;2023-11-21T00:24:46;7.20;90.80
4406;DHT22;2216;53.806;11.598;2023-11-21T00:27:12;7.20;90.80
4406;DHT22;2216;53.806;11.598;2023-11-21T00:29:38;7.20;90.80
4406;DHT22;2216;53.806;11.598;2023-11-21T00:32:04;7.20;90.80
4406;DHT22;2216;53.806;11.598;2023-11-21T00:34:31;7.20;90.80
4406;DHT22;2216;53.806;11.598;2023-11-21T00:36:57;7.20;90.80
4406;DHT22;2216;53.806;11.598;2023-11-21T00:39:23;7.20;90.80
4406;DHT22;2216;53.806;11.598;2023-11-21T00:41:49;7.20;90.80
4406;DHT22;2216;53.806;11.598;2023-11-21T00:44:15;7.20;90.80
4406;DHT22;2216;53.806;11.598;2023-11-21T00:46:41;7.20;90.80
4406;DHT22;2216;53.806;11.598;2023-11-21T00:49:07;7.20;90.80
4406;DHT22;2216;53.806;11.598;2023-11-21T00:51:33;7.20;90.80
4406;DHT22;2216;53.806;11.598;2023-11-21T00:53:59;7.20;90.80
4406;DHT22;2216;53.806;11.598;2023-11-21T00:56:24;7.10;90.70
4406;DHT22;2216;53.806;11.598;2023-11-21T00:58:50;7.10;90.70
4406;DHT22;2216;53.806;11.598;2023-11-21T01:01:18;7.10;90.70
4406;DHT22;2216;53.806;11.598;2023-11-21T01:03:46;7.10;90.70
4406;DHT22;2216;53.806;11.598;2023-11-21T01:06:11;7.10;90.70
4406;DHT22;2216;53.806;11.598;2023-11-21T01:08:37;7.10;90.70
4406;DHT22;2216;53.806;11.598;2023-11-21T01:11:03;7.10;90.70
4406;DHT22;2216;53.806;11.598;2023-11-21T01:13:30;7.10;90.70
4406;DHT22;2216;53.806;11.598;2023-11-21T01:15:56;7.10;90.70
4406;DHT22;2216;53.806;11.598;2023-11-21T01:18:22;7.10;90.70
4406;DHT22;2216;53.806;11.598;2023-11-21T01:20:47;7.10;90.60
4406;DHT22;2216;53.806;11.598;2023-11-21T01:23:13;7.10;90.60
4406;DHT22;2216;53.806;11.598;2023-11-21T01:25:39;7.10;90.60
4406;DHT22;2216;53.806;11.598;2023-11-21T01:28:05;7.00;90.60
4406;DHT22;2216;53.806;11.598;2023-11-21T01:30:32;7.00;90.60
4406;DHT22;2216;53.806;11.598;2023-11-21T01:32:58;7.00;90.60
4406;DHT22;2216;53.806;11.598;2023-11-21T01:35:24;7.00;90.60
4406;DHT22;2216;53.806;11.598;2023-11-21T01:37:50;7.00;90.60
4406;DHT22;2216;53.806;11.598;2023-11-21T01:40:16;7.00;90.60
4406;DHT22;2216;53.806;11.598;2023-11-21T01:42:42;7.00;90.60
4406;DHT22;2216;53.806;11.598;2023-11-21T01:45:12;7.00;90.60
4406;DHT22;2216;53.806;11.598;2023-11-21T01:47:38;7.00;90.60
4406;DHT22;2216;53.806;11.598;2023-11-21T01:50:07;6.90;90.60
4406;DHT22;2216;53.806;11.598;2023-11-21T01:52:35;7.00;90.60
4406;DHT22;2216;53.806;11.598;2023-11-21T01:55:01;6.90;90.60
4406;DHT22;2216;53.806;11.598;2023-11-21T01:57:27;6.90;90.60
4406;DHT22;2216;53.806;11.598;2023-11-21T01:59:54;6.90;90.60
4406;DHT22;2216;53.806;11.598;2023-11-21T02:02:20;6.90;90.60
4406;DHT22;2216;53.806;11.598;2023-11-21T02:04:45;6.90;90.60
4406;DHT22;2216;53.806;11.598;2023-11-21T02:07:11;6.80;90.50
4406;DHT22;2216;53.806;11.598;2023-11-21T02:09:37;7.00;90.60
4406;DHT22;2216;53.806;11.598;2023-11-21T02:12:04;6.80;90.50
4406;DHT22;2216;53.806;11.598;2023-11-21T02:14:30;6.80;90.50
4406;DHT22;2216;53.806;11.598;2023-11-21T02:16:57;6.80;90.50
4406;DHT22;2216;53.806;11.598;2023-11-21T02:19:23;6.80;90.50
4406;DHT22;2216;53.806;11.598;2023-11-21T02:21:51;6.70;90.50
4406;DHT22;2216;53.806;11.598;2023-11-21T02:24:22;6.70;90.50
4406;DHT22;2216;53.806;11.598;2023-11-21T02:26:48;6.70;90.50
4406;DHT22;2216;53.806;11.598;2023-11-21T02:29:17;6.70;90.50
4406;DHT22;2216;53.806;11.598;2023-11-21T02:31:45;6.70;90.50
4406;DHT22;2216;53.806;11.598;2023-11-21T02:34:17;6.60;90.50
4406;DHT22;2216;53.806;11.598;2023-11-21T02:36:44;6.60;90.40
4406;DHT22;2216;53.806;11.598;2023-11-21T02:39:10;6.60;90.50
4406;DHT22;2216;53.806;11.598;2023-11-21T02:41:37;6.60;90.50
4406;DHT22;2216;53.806;11.598;2023-11-21T02:44:07;6.60;90.50
4406;DHT22;2216;53.806;11.598;2023-11-21T02:46:33;6.50;90.40
4406;DHT22;2216;53.806;11.598;2023-11-21T02:49:03;6.50;90.40
4406;DHT22;2216;53.806;11.598;2023-11-21T02:51:31;6.50;90.50
4406;DHT22;2216;53.806;11.598;2023-11-21T02:53:58;6.50;90.50
4406;DHT22;2216;53.806;11.598;2023-11-21T02:56:27;6.50;90.50
4406;DHT22;2216;53.806;11.598;2023-11-21T02:58:55;6.50;90.50
4406;DHT22;2216;53.806;11.598;2023-11-21T03:01:21;6.50;90.50
4406;DHT22;2216;53.806;11.598;2023-11-21T03:03:49;6.50;90.60
4406;DHT22;2216;53.806;11.598;2023-11-21T03:06:17;6.50;90.60
4406;DHT22;2216;53.806;11.598;2023-11-21T03:08:43;6.50;90.60
4406;DHT22;2216;53.806;11.598;2023-11-21T03:11:09;6.50;90.60
4406;DHT22;2216;53.806;11.598;2023-11-21T03:13:34;6.50;90.60
4406;DHT22;2216;53.806;11.598;2023-11-21T03:16:00;6.50;90.60
4406;DHT22;2216;53.806;11.598;2023-11-21T03:18:26;6.50;90.60
4406;DHT22;2216;53.806;11.598;2023-11-21T03:20:53;6.50;90.60
4406;DHT22;2216;53.806;11.598;2023-11-21T03:23:18;6.50;90.60
4406;DHT22;2216;53.806;11.598;2023-11-21T03:25:44;6.50;90.60
4406;DHT22;2216;53.806;11.598;2023-11-21T03:28:10;6.50;90.50
4406;DHT22;2216;53.806;11.598;2023-11-21T03:30:36;6.50;90.50
4406;DHT22;2216;53.806;11.598;2023-11-21T03:33:01;6.50;90.50
4406;DHT22;2216;53.806;11.598;2023-11-21T03:35:27;6.50;90.50
4406;DHT22;2216;53.806;11.598;2023-11-21T03:37:53;6.40;90.50
4406;DHT22;2216;53.806;11.598;2023-11-21T03:40:19;6.40;90.50
4406;DHT22;2216;53.806;11.598;2023-11-21T03:42:46;6.40;90.50
4406;DHT22;2216;53.806;11.598;2023-11-21T03:45:12;6.40;90.50
4406;DHT22;2216;53.806;11.598;2023-11-21T03:47:41;6.40;90.50
4406;DHT22;2216;53.806;11.598;2023-11-21T03:50:07;6.40;90.50
4406;DHT22;2216;53.806;11.598;2023-11-21T03:52:34;6.40;90.50
4406;DHT22;2216;53.806;11.598;2023-11-21T03:55:01;6.40;90.50
4406;DHT22;2216;53.806;11.598;2023-11-21T03:57:27;6.40;90.50
4406;DHT22;2216;53.806;11.598;2023-11-21T03:59:53;6.40;90.50
4406;DHT22;2216;53.806;11.598;2023-11-21T04:02:19;6.40;90.50
4406;DHT22;2216;53.806;11.598;2023-11-21T04:04:45;6.30;90.50
4406;DHT22;2216;53.806;11.598;2023-11-21T04:07:11;6.30;90.50
4406;DHT22;2216;53.806;11.598;2023-11-21T04:09:39;6.30;90.60
4406;DHT22;2216;53.806;11.598;2023-11-21T04:12:05;6.30;90.60
4406;DHT22;2216;53.806;11.598;2023-11-21T04:14:31;6.30;90.60
4406;DHT22;2216;53.806;11.598;2023-11-21T04:16:57;6.30;90.60
4406;DHT22;2216;53.806;11.598;2023-11-21T04:19:23;6.30;90.60
4406;DHT22;2216;53.806;11.598;2023-11-21T04:21:48;6.30;90.60
4406;DHT22;2216;53.806;11.598;2023-11-21T04:24:15;6.30;90.60
4406;DHT22;2216;53.806;11.598;2023-11-21T04:26:41;6.30;90.60
4406;DHT22;2216;53.806;11.598;2023-11-21T04:29:07;6.30;90.60
4406;DHT22;2216;53.806;11.598;2023-11-21T04:31:32;6.40;90.70
4406;DHT22;2216;53.806;11.598;2023-11-21T04:33:58;6.40;90.70
4406;DHT22;2216;53.806;11.598;2023-11-21T04:36:24;6.40;90.70
4406;DHT22;2216;53.806;11.598;2023-11-21T04:38:49;6.40;90.70
4406;DHT22;2216;53.806;11.598;2023-11-21T04:41:15;6.40;90.70
4406;DHT22;2216;53.806;11.598;2023-11-21T04:43:41;6.40;90.70
4406;DHT22;2216;53.806;11.598;2023-11-21T04:46:07;6.40;90.60
4406;DHT22;2216;53.806;11.598;2023-11-21T04:48:33;6.40;90.60
4406;DHT22;2216;53.806;11.598;2023-11-21T04:50:59;6.40;90.60
4406;DHT22;2216;53.806;11.598;2023-11-21T04:53:24;6.40;90.60
4406;DHT22;2216;53.806;11.598;2023-11-21T04:55:50;6.40;90.60
4406;DHT22;2216;53.806;11.598;2023-11-21T04:58:16;6.40;90.60
4406;DHT22;2216;53.806;11.598;2023-11-21T05:00:41;6.40;90.60
4406;DHT22;2216;53.806;11.598;2023-11-21T05:03:07;6.40;90.60
4406;DHT22;2216;53.806;11.598;2023-11-21T05:05:33;6.40;90.60
4406;DHT22;2216;53.806;11.598;2023-11-21T05:08:01;6.40;90.60
4406;DHT22;2216;53.806;11.598;2023-11-21T05:10:27;6.40;90.60
4406;DHT22;2216;53.806;11.598;2023-11-21T05:12:54;6.50;90.60
4406;DHT22;2216;53.806;11.598;2023-11-21T05:15:21;6.40;90.60
4406;DHT22;2216;53.806;11.598;2023-11-21T05:17:47;6.40;90.60
4406;DHT22;2216;53.806;11.598;2023-11-21T05:20:17;6.40;90.50
4406;DHT22;2216;53.806;11.598;2023-11-21T05:22:48;6.40;90.50
4406;DHT22;2216;53.806;11.598;2023-11-21T05:25:15;6.40;90.60
4406;DHT22;2216;53.806;11.598;2023-11-21T05:27:42;6.40;90.50
4406;DHT22;2216;53.806;11.598;2023-11-21T05:30:08;6.40;90.50
4406;DHT22;2216;53.806;11.598;2023-11-21T05:32:38;6.40;90.50
4406;DHT22;2216;53.806;11.598;2023-11-21T05:35:04;6.40;90.50
4406;DHT22;2216;53.806;11.598;2023-11-21T05:37:35;6.40;90.50
4406;DHT22;2216;53.806;11.598;2023-11-21T05:40:01;6.40;90.50
4406;DHT22;2216;53.806;11.598;2023-11-21T05:42:32;6.40;90.50
4406;DHT22;2216;53.806;11.598;2023-11-21T05:44:58;6.40;90.50
4406;DHT22;2216;53.806;11.598;2023-11-21T05:47:43;6.40;90.50
4406;DHT22;2216;53.806;11.598;2023-11-21T05:50:12;6.40;90.50
4406;DHT22;2216;53.806;11.598;2023-11-21T05:52:40;6.40;90.50
4406;DHT22;2216;53.806;11.598;2023-11-21T05:55:07;6.40;90.50
4406;DHT22;2216;53.806;11.598;2023-11-21T05:57:34;6.40;90.50
4406;DHT22;2216;53.806;11.598;2023-11-21T06:00:08;6.40;90.50
4406;DHT22;2216;53.806;11.598;2023-11-21T06:02:37;6.30;90.50
4406;DHT22;2216;53.806;11.598;2023-11-21T06:05:04;6.30;90.50
4406;DHT22;2216;53.806;11.598;2023-11-21T06:07:31;6.30;90.50
4406;DHT22;2216;53.806;11.598;2023-11-21T06:09:57;6.40;90.50
4406;DHT22;2216;53.806;11.598;2023-11-21T06:12:22;6.30;90.50
4406;DHT22;2216;53.806;11.598;2023-11-21T06:14:48;6.30;90.50
4406;DHT22;2216;53.806;11.598;2023-11-21T06:17:14;6.30;90.50
4406;DHT22;2216;53.806;11.598;2023-11-21T06:19:39;6.30;90.50
4406;DHT22;2216;53.806;11.598;2023-11-21T06:22:05;6.30;90.50
4406;DHT22;2216;53.806;11.598;2023-11-21T06:24:31;6.30;90.50
4406;DHT22;2216;53.806;11.598;2023-11-21T06:26:57;6.30;90.50
4406;DHT22;2216;53.806;11.598;2023-11-21T06:29:23;6.30;90.50
4406;DHT22;2216;53.806;11.598;2023-11-21T06:31:49;6.30;90.50
4406;DHT22;2216;53.806;11.598;2023-11-21T06:34:15;6.30;90.50
4406;DHT22;2216;53.806;11.598;2023-11-21T06:36:40;6.40;90.50
4406;DHT22;2216;53.806;11.598;2023-11-21T06:39:06;6.30;90.50
4406;DHT22;2216;53.806;11.598;2023-11-21T06:41:33;6.30;90.50
4406;DHT22;2216;53.806;11.598;2023-11-21T06:44:00;6.30;90.50
4406;DHT22;2216;53.806;11.598;2023-11-21T06:46:25;6.30;90.50
4406;DHT22;2216;53.806;11.598;2023-11-21T06:48:51;6.30;90.40
4406;DHT22;2216;53.806;11.598;2023-11-21T06:51:17;6.30;90.40
4406;DHT22;2216;53.806;11.598;2023-11-21T06:53:42;6.30;90.40
4406;DHT22;2216;53.806;11.598;2023-11-21T06:56:18;6.30;90.40
4406;DHT22;2216;53.806;11.598;2023-11-21T06:58:45;6.20;90.40
4406;DHT22;2216;53.806;11.598;2023-11-21T07:01:12;6.20;90.40
4406;DHT22;2216;53.806;11.598;2023-11-21T07:03:39;6.20;90.40
4406;DHT22;2216;53.806;11.598;2023-11-21T07:06:05;6.20;90.40
4406;DHT22;2216;53.806;11.598;2023-11-21T07:08:31;6.20;90.40
4406;DHT22;2216;53.806;11.598;2023-11-21T07:10:56;6.20;90.40
4406;DHT22;2216;53.806;11.598;2023-11-21T07:13:22;6.20;90.40
4406;DHT22;2216;53.806;11.598;2023-11-21T07:15:49;6.20;90.40
4406;DHT22;2216;53.806;11.598;2023-11-21T07:18:14;6.20;90.80
4406;DHT22;2216;53.806;11.598;2023-11-21T07:20:40;6.20;90.50
4406;DHT22;2216;53.806;11.598;2023-11-21T07:23:06;6.20;90.50
4406;DHT22;2216;53.806;11.598;2023-11-21T07:25:32;6.20;90.50
4406;DHT22;2216;53.806;11.598;2023-11-21T07:27:59;6.20;90.50
4406;DHT22;2216;53.806;11.598;2023-11-21T07:30:26;6.20;90.50
4406;DHT22;2216;53.806;11.598;2023-11-21T07:32:52;6.30;90.50
4406;DHT22;2216;53.806;11.598;2023-11-21T07:35:18;6.20;90.50
4406;DHT22;2216;53.806;11.598;2023-11-21T07:37:43;6.20;90.50
4406;DHT22;2216;53.806;11.598;2023-11-21T07:40:09;6.20;90.50
4406;DHT22;2216;53.806;11.598;2023-11-21T07:42:37;6.20;90.50
4406;DHT22;2216;53.806;11.598;2023-11-21T07:45:04;6.20;90.50
4406;DHT22;2216;53.806;11.598;2023-11-21T07:47:32;6.20;90.50
4406;DHT22;2216;53.806;11.598;2023-11-21T07:50:00;6.30;90.50
4406;DHT22;2216;53.806;11.598;2023-11-21T07:52:28;6.30;90.50
4406;DHT22;2216;53.806;11.598;2023-11-21T07:54:54;6.30;90.50
4406;DHT22;2216;53.806;11.598;2023-11-21T07:57:20;6.30;90.50
4406;DHT22;2216;53.806;11.598;2023-11-21T07:59:45;6.30;90.60
4406;DHT22;2216;53.806;11.598;2023-11-21T08:02:11;6.30;90.60
4406;DHT22;2216;53.806;11.598;2023-11-21T08:04:37;6.30;90.60
4406;DHT22;2216;53.806;11.598;2023-11-21T08:07:03;6.40;90.60
4406;DHT22;2216;53.806;11.598;2023-11-21T08:09:29;6.40;90.60
4406;DHT22;2216;53.806;11.598;2023-11-21T08:11:55;6.40;90.60
4406;DHT22;2216;53.806;11.598;2023-11-21T08:14:22;6.40;90.60
4406;DHT22;2216;53.806;11.598;2023-11-21T08:16:50;6.40;90.60
4406;DHT22;2216;53.806;11.598;2023-11-21T08:19:16;6.40;90.60
4406;DHT22;2216;53.806;11.598;2023-11-21T08:21:43;6.40;90.60
4406;DHT22;2216;53.806;11.598;2023-11-21T08:24:10;6.40;90.60
4406;DHT22;2216;53.806;11.598;2023-11-21T08:26:37;6.50;90.60
4406;DHT22;2216;53.806;11.598;2023-11-21T08:29:03;6.50;90.50
4406;DHT22;2216;53.806;11.598;2023-11-21T08:31:29;6.50;90.50
4406;DHT22;2216;53.806;11.598;2023-11-21T08:33:55;6.50;90.50
4406;DHT22;2216;53.806;11.598;2023-11-21T08:36:25;6.50;90.50
4406;DHT22;2216;53.806;11.598;2023-11-21T08:38:51;6.50;90.50
4406;DHT22;2216;53.806;11.598;2023-11-21T08:41:18;6.50;90.50
4406;DHT22;2216;53.806;11.598;2023-11-21T08:43:52;6.50;90.50
4406;DHT22;2216;53.806;11.598;2023-11-21T08:46:19;6.60;90.50
4406;DHT22;2216;53.806;11.598;2023-11-21T08:48:44;6.60;90.50
4406;DHT22;2216;53.806;11.598;2023-11-21T08:51:11;6.60;90.50
4406;DHT22;2216;53.806;11.598;2023-11-21T08:53:39;6.60;90.50
4406;DHT22;2216;53.806;11.598;2023-11-21T08:56:05;6.60;90.50
4406;DHT22;2216;53.806;11.598;2023-11-21T08:58:31;6.60;90.50
4406;DHT22;2216;53.806;11.598;2023-11-21T09:00:58;6.60;90.50
4406;DHT22;2216;53.806;11.598;2023-11-21T09:03:23;6.60;90.80
4406;DHT22;2216;53.806;11.598;2023-11-21T09:05:51;6.60;90.40
4406;DHT22;2216;53.806;11.598;2023-11-21T09:08:16;6.60;90.50
4406;DHT22;2216;53.806;11.598;2023-11-21T09:10:42;6.60;90.50
4406;DHT22;2216;53.806;11.598;2023-11-21T09:13:10;6.70;90.50
4406;DHT22;2216;53.806;11.598;2023-11-21T09:15:36;6.70;90.60
4406;DHT22;2216;53.806;11.598;2023-11-21T09:18:01;6.70;90.50
4406;DHT22;2216;53.806;11.598;2023-11-21T09:20:27;6.70;90.40
4406;DHT22;2216;53.806;11.598;2023-11-21T09:22:54;6.80;90.40
4406;DHT22;2216;53.806;11.598;2023-11-21T09:25:20;6.70;90.30
4406;DHT22;2216;53.806;11.598;2023-11-21T09:27:46;6.80;90.30
4406;DHT22;2216;53.806;11.598;2023-11-21T09:30:12;6.70;90.30
4406;DHT22;2216;53.806;11.598;2023-11-21T09:32:40;6.90;90.40
4406;DHT22;2216;53.806;11.598;2023-11-21T09:35:06;6.80;90.30
4406;DHT22;2216;53.806;11.598;2023-11-21T09:37:34;6.80;90.30
4406;DHT22;2216;53.806;11.598;2023-11-21T09:40:04;6.80;90.30
4406;DHT22;2216;53.806;11.598;2023-11-21T09:42:36;6.80;90.30
4406;DHT22;2216;53.806;11.598;2023-11-21T09:45:32;6.80;90.40
4406;DHT22;2216;53.806;11.598;2023-11-21T09:48:00;6.80;90.40
4406;DHT22;2216;53.806;11.598;2023-11-21T09:50:27;6.90;90.30
4406;DHT22;2216;53.806;11.598;2023-11-21T09:55:46;6.90;90.40
4406;DHT22;2216;53.806;11.598;2023-11-21T09:58:16;7.00;90.40
4406;DHT22;2216;53.806;11.598;2023-11-21T10:00:44;7.00;90.30
4406;DHT22;2216;53.806;11.598;2023-11-21T10:03:11;7.00;90.30
4406;DHT22;2216;53.806;11.598;2023-11-21T10:05:37;7.00;90.30
4406;DHT22;2216;53.806;11.598;2023-11-21T10:08:10;7.00;90.20
4406;DHT22;2216;53.806;11.598;2023-11-21T10:10:38;7.00;90.20
4406;DHT22;2216;53.806;11.598;2023-11-21T10:13:11;7.00;90.20
4406;DHT22;2216;53.806;11.598;2023-11-21T10:15:42;7.00;90.20
4406;DHT22;2216;53.806;11.598;2023-11-21T10:18:14;7.00;90.10
4406;DHT22;2216;53.806;11.598;2023-11-21T10:20:45;7.00;90.20
4406;DHT22;2216;53.806;11.598;2023-11-21T10:23:21;7.00;90.10
4406;DHT22;2216;53.806;11.598;2023-11-21T10:25:47;7.00;90.20
4406;DHT22;2216;53.806;11.598;2023-11-21T10:28:15;7.00;90.20
4406;DHT22;2216;53.806;11.598;2023-11-21T10:30:40;7.00;90.20
4406;DHT22;2216;53.806;11.598;2023-11-21T10:33:07;7.00;90.20
4406;DHT22;2216;53.806;11.598;2023-11-21T10:35:46;7.00;90.20
4406;DHT22;2216;53.806;11.598;2023-11-21T10:38:17;7.00;90.10
4406;DHT22;2216;53.806;11.598;2023-11-21T10:40:43;7.00;90.10
4406;DHT22;2216;53.806;11.598;2023-11-21T10:43:10;7.00;90.00
4406;DHT22;2216;53.806;11.598;2023-11-21T10:45:39;7.00;90.10
4406;DHT22;2216;53.806;11.598;2023-11-21T10:48:06;7.00;90.10
4406;DHT22;2216;53.806;11.598;2023-11-21T10:50:41;7.00;90.10
4406;DHT22;2216;53.806;11.598;2023-11-21T10:53:07;7.00;90.10
4406;DHT22;2216;53.806;11.598;2023-11-21T10:55:33;7.00;90.20
4406;DHT22;2216;53.806;11.598;2023-11-21T10:58:02;7.00;90.30
4406;DHT22;2216;53.806;11.598;2023-11-21T11:00:30;7.10;90.30
4406;DHT22;2216;53.806;11.598;2023-11-21T11:02:57;7.10;90.30
4406;DHT22;2216;53.806;11.598;2023-11-21T11:05:25;7.10;90.30
4406;DHT22;2216;53.806;11.598;2023-11-21T11:08:05;7.10;90.30
4406;DHT22;2216;53.806;11.598;2023-11-21T11:10:31;7.10;90.10
4406;DHT22;2216;53.806;11.598;2023-11-21T11:12:58;7.10;90.10
4406;DHT22;2216;53.806;11.598;2023-11-21T11:15:25;7.10;90.00
4406;DHT22;2216;53.806;11.598;2023-11-21T11:17:52;7.10;90.10
4406;DHT22;2216;53.806;11.598;2023-11-21T11:20:23;7.10;90.00
4406;DHT22;2216;53.806;11.598;2023-11-21T11:26:05;7.10;89.50
4406;DHT22;2216;53.806;11.598;2023-11-21T11:34:38;7.10;89.50
4406;DHT22;2216;53.806;11.598;2023-11-21T11:37:08;7.10;89.80
4406;DHT22;2216;53.806;11.598;2023-11-21T11:39:41;7.10;89.50
4406;DHT22;2216;53.806;11.598;2023-11-21T11:42:15;7.10;89.60
4406;DHT22;2216;53.806;11.598;2023-11-21T11:47:31;7.00;89.70
4406;DHT22;2216;53.806;11.598;2023-11-21T11:50:13;7.10;89.70
4406;DHT22;2216;53.806;11.598;2023-11-21T11:55:15;7.00;89.40
4406;DHT22;2216;53.806;11.598;2023-11-21T11:57:46;7.00;89.30
4406;DHT22;2216;53.806;11.598;2023-11-21T12:00:14;7.00;89.40
4406;DHT22;2216;53.806;11.598;2023-11-21T12:03:02;7.00;89.50
4406;DHT22;2216;53.806;11.598;2023-11-21T12:05:29;7.10;88.90
4406;DHT22;2216;53.806;11.598;2023-11-21T12:08:09;7.00;89.20
4406;DHT22;2216;53.806;11.598;2023-11-21T12:10:37;7.00;89.10
4406;DHT22;2216;53.806;11.598;2023-11-21T12:13:09;7.00;89.00
4406;DHT22;2216;53.806;11.598;2023-11-21T12:15:36;7.00;89.40
4406;DHT22;2216;53.806;11.598;2023-11-21T12:18:02;7.00;89.50
4406;DHT22;2216;53.806;11.598;2023-11-21T12:20:31;7.00;89.50
4406;DHT22;2216;53.806;11.598;2023-11-21T12:22:59;7.00;89.50
4406;DHT22;2216;53.806;11.598;2023-11-21T12:25:26;7.00;89.60
4406;DHT22;2216;53.806;11.598;2023-11-21T12:27:55;7.00;89.60
4406;DHT22;2216;53.806;11.598;2023-11-21T12:30:23;7.10;89.30
4406;DHT22;2216;53.806;11.598;2023-11-21T12:32:54;7.00;89.30
4406;DHT22;2216;53.806;11.598;2023-11-21T12:35:23;7.00;89.50
4406;DHT22;2216;53.806;11.598;2023-11-21T12:37:51;7.00;89.50
4406;DHT22;2216;53.806;11.598;2023-11-21T12:40:18;7.00;89.40
4406;DHT22;2216;53.806;11.598;2023-11-21T12:42:57;7.00;89.20
4406;DHT22;2216;53.806;11.598;2023-11-21T12:45:24;7.00;89.40
4406;DHT22;2216;53.806;11.598;2023-11-21T12:47:57;6.90;89.30
4406;DHT22;2216;53.806;11.598;2023-11-21T12:50:30;7.00;89.50
4406;DHT22;2216;53.806;11.598;2023-11-21T12:53:02;7.00;89.70
4406;DHT22;2216;53.806;11.598;2023-11-21T12:55:32;7.00;89.70
4406;DHT22;2216;53.806;11.598;2023-11-21T12:58:02;7.00;89.60
4406;DHT22;2216;53.806;11.598;2023-11-21T13:03:12;7.20;89.80
4406;DHT22;2216;53.806;11.598;2023-11-21T13:05:43;7.10;89.80
4406;DHT22;2216;53.806;11.598;2023-11-21T13:08:11;7.10;89.80
4406;DHT22;2216;53.806;11.598;2023-11-21T13:10:43;7.10;89.70
4406;DHT22;2216;53.806;11.598;2023-11-21T13:13:12;7.10;89.60
4406;DHT22;2216;53.806;11.598;2023-11-21T13:15:48;7.10;88.80
4406;DHT22;2216;53.806;11.598;2023-11-21T13:18:15;7.10;88.90
4406;DHT22;2216;53.806;11.598;2023-11-21T13:20:43;7.10;88.90
4406;DHT22;2216;53.806;11.598;2023-11-21T13:23:10;7.10;88.70
4406;DHT22;2216;53.806;11.598;2023-11-21T13:25:41;7.00;88.80
4406;DHT22;2216;53.806;11.598;2023-11-21T13:28:08;7.00;88.90
4406;DHT22;2216;53.806;11.598;2023-11-21T13:30:35;7.00;88.60
4406;DHT22;2216;53.806;11.598;2023-11-21T13:33:04;7.00;88.80
4406;DHT22;2216;53.806;11.598;2023-11-21T13:35:37;7.00;88.80
4406;DHT22;2216;53.806;11.598;2023-11-21T13:38:08;7.00;88.80
4406;DHT22;2216;53.806;11.598;2023-11-21T13:40:39;7.00;89.00
4406;DHT22;2216;53.806;11.598;2023-11-21T13:43:13;7.00;89.10
4406;DHT22;2216;53.806;11.598;2023-11-21T13:45:42;7.00;89.20
4406;DHT22;2216;53.806;11.598;2023-11-21T13:48:10;7.00;88.90
4406;DHT22;2216;53.806;11.598;2023-11-21T13:50:37;6.90;88.80
4406;DHT22;2216;53.806;11.598;2023-11-21T13:53:03;6.90;88.70
4406;DHT22;2216;53.806;11.598;2023-11-21T13:55:36;6.90;88.50
4406;DHT22;2216;53.806;11.598;2023-11-21T13:58:03;6.90;88.40
4406;DHT22;2216;53.806;11.598;2023-11-21T14:00:29;6.90;88.70
4406;DHT22;2216;53.806;11.598;2023-11-21T14:03:18;6.90;88.60
4406;DHT22;2216;53.806;11.598;2023-11-21T14:05:48;6.90;88.60
4406;DHT22;2216;53.806;11.598;2023-11-21T14:08:20;6.90;88.80
4406;DHT22;2216;53.806;11.598;2023-11-21T14:10:50;6.80;88.80
4406;DHT22;2216;53.806;11.598;2023-11-21T14:13:21;6.80;89.60
4406;DHT22;2216;53.806;11.598;2023-11-21T14:15:49;6.80;89.00
4406;DHT22;2216;53.806;11.598;2023-11-21T14:18:17;6.80;89.10
4406;DHT22;2216;53.806;11.598;2023-11-21T14:20:51;6.80;88.80
4406;DHT22;2216;53.806;11.598;2023-11-21T14:23:17;6.80;88.80
4406;DHT22;2216;53.806;11.598;2023-11-21T14:25:43;7.00;88.60
4406;DHT22;2216;53.806;11.598;2023-11-21T14:28:09;6.80;88.60
4406;DHT22;2216;53.806;11.598;2023-11-21T14:30:37;6.70;88.60
4406;DHT22;2216;53.806;11.598;2023-11-21T14:33:05;6.70;88.60
4406;DHT22;2216;53.806;11.598;2023-11-21T14:35:31;6.70;88.60
4406;DHT22;2216;53.806;11.598;2023-11-21T14:37:58;6.70;88.50
4406;DHT22;2216;53.806;11.598;2023-11-21T14:40:26;6.60;88.20
4406;DHT22;2216;53.806;11.598;2023-11-21T14:42:56;6.60;87.70
4406;DHT22;2216;53.806;11.598;2023-11-21T14:45:22;6.50;87.30
4406;DHT22;2216;53.806;11.598;2023-11-21T14:47:51;6.40;87.20
4406;DHT22;2216;53.806;11.598;2023-11-21T14:50:32;6.40;87.30
4406;DHT22;2216;53.806;11.598;2023-11-21T14:53:08;6.20;87.30
4406;DHT22;2216;53.806;11.598;2023-11-21T14:55:35;6.20;87.50
4406;DHT22;2216;53.806;11.598;2023-11-21T14:58:17;6.10;87.50
4406;DHT22;2216;53.806;11.598;2023-11-21T15:00:58;6.10;87.50
4406;DHT22;2216;53.806;11.598;2023-11-21T15:03:26;6.00;87.40
4406;DHT22;2216;53.806;11.598;2023-11-21T15:08:26;5.90;87.20
4406;DHT22;2216;53.806;11.598;2023-11-21T15:10:57;5.70;87.10
4406;DHT22;2216;53.806;11.598;2023-11-21T15:13:23;5.70;87.20
4406;DHT22;2216;53.806;11.598;2023-11-21T15:15:51;5.60;87.30
4406;DHT22;2216;53.806;11.598;2023-11-21T15:18:20;5.60;87.50
4406;DHT22;2216;53.806;11.598;2023-11-21T15:20:46;5.60;87.60
4406;DHT22;2216;53.806;11.598;2023-11-21T15:23:12;5.50;87.60
4406;DHT22;2216;53.806;11.598;2023-11-21T15:25:42;5.40;87.70
4406;DHT22;2216;53.806;11.598;2023-11-21T15:28:07;5.40;87.80
4406;DHT22;2216;53.806;11.598;2023-11-21T15:30:34;5.40;87.90
4406;DHT22;2216;53.806;11.598;2023-11-21T15:33:00;5.30;88.00
4406;DHT22;2216;53.806;11.598;2023-11-21T15:35:26;5.30;88.10
4406;DHT22;2216;53.806;11.598;2023-11-21T15:37:55;5.30;88.20
4406;DHT22;2216;53.806;11.598;2023-11-21T15:40:24;5.20;87.90
4406;DHT22;2216;53.806;11.598;2023-11-21T15:42:50;5.30;89.00
4406;DHT22;2216;53.806;11.598;2023-11-21T15:45:16;5.20;88.30
4406;DHT22;2216;53.806;11.598;2023-11-21T15:47:45;5.20;88.40
4406;DHT22;2216;53.806;11.598;2023-11-21T15:50:11;5.20;88.40
4406;DHT22;2216;53.806;11.598;2023-11-21T15:52:37;5.20;88.40
4406;DHT22;2216;53.806;11.598;2023-11-21T15:55:03;5.20;88.40
4406;DHT22;2216;53.806;11.598;2023-11-21T15:57:29;5.20;88.50
4406;DHT22;2216;53.806;11.598;2023-11-21T15:59:55;5.20;88.50
4406;DHT22;2216;53.806;11.598;2023-11-21T16:02:21;5.10;88.50
4406;DHT22;2216;53.806;11.598;2023-11-21T16:04:46;5.10;88.60
4406;DHT22;2216;53.806;11.598;2023-11-21T16:07:12;5.10;88.60
4406;DHT22;2216;53.806;11.598;2023-11-21T16:09:39;5.20;88.60
4406;DHT22;2216;53.806;11.598;2023-11-21T16:12:06;5.10;88.60
4406;DHT22;2216;53.806;11.598;2023-11-21T16:14:33;5.10;88.60
4406;DHT22;2216;53.806;11.598;2023-11-21T16:17:13;5.10;88.60
4406;DHT22;2216;53.806;11.598;2023-11-21T16:19:46;5.10;88.70
4406;DHT22;2216;53.806;11.598;2023-11-21T16:22:12;5.10;88.70
4406;DHT22;2216;53.806;11.598;2023-11-21T16:24:39;5.10;88.70
4406;DHT22;2216;53.806;11.598;2023-11-21T16:27:05;5.10;88.70